Time;durP1;ratioP1;P1;durP2;ratioP2;P2;SDS_P1;SDS_P2;PMS_P1;PMS_P2;Temp;Humidity;BMP_temperature;BMP_pressure;BME280_temperature;BME280_humidity;BME280_pressure;Samples;Min_cycle;Max_cycle;Signal;HPM_P1;HPM_P2
2022/03/30 00:01:59;;;;;;;9.23;3.80;;;19.00;30.80;;;;;;5086208;28;46831;-16
2022/03/30 00:04:26;;;;;;;7.75;3.80;;;19.00;30.80;;;;;;5087737;28;46971;-21
2022/03/30 00:06:54;;;;;;;7.25;3.55;;;19.00;30.80;;;;;;5087230;28;46801;-21
2022/03/30 00:09:20;;;;;;;9.00;3.85;;;19.00;30.90;;;;;;5086919;28;47059;-21
2022/03/30 00:11:47;;;;;;;10.18;3.67;;;18.90;30.90;;;;;;5087125;28;47017;-16
2022/03/30 00:14:14;;;;;;;8.18;3.78;;;18.90;30.90;;;;;;5087236;28;46962;-16
2022/03/30 00:16:40;;;;;;;7.22;3.17;;;18.90;30.80;;;;;;5087156;28;47809;-17
2022/03/30 00:19:07;;;;;;;8.82;4.20;;;18.90;30.90;;;;;;5086757;28;47276;-20
2022/03/30 00:21:34;;;;;;;8.65;3.42;;;18.90;30.90;;;;;;5087071;28;46859;-20
2022/03/30 00:24:02;;;;;;;9.52;3.80;;;18.90;31.00;;;;;;5086887;28;46892;-20
2022/03/30 00:26:29;;;;;;;6.57;3.60;;;18.90;31.00;;;;;;5086880;28;49113;-21
2022/03/30 00:28:56;;;;;;;8.95;3.58;;;18.90;31.00;;;;;;5086903;28;46939;-20
2022/03/30 00:31:25;;;;;;;8.05;3.58;;;18.90;31.00;;;;;;5087215;28;46844;-17
2022/03/30 00:33:52;;;;;;;8.63;3.95;;;18.90;30.90;;;;;;5086973;28;47230;-16
2022/03/30 00:36:19;;;;;;;7.90;4.05;;;18.90;31.00;;;;;;5087133;28;48115;-21
2022/03/30 00:38:46;;;;;;;6.13;3.10;;;18.80;30.90;;;;;;5086526;28;46937;-16
2022/03/30 00:41:14;;;;;;;7.60;3.40;;;18.80;30.90;;;;;;5086707;28;46803;-21
2022/03/30 00:43:40;;;;;;;9.10;3.53;;;18.80;31.00;;;;;;5086703;28;46815;-16
2022/03/30 00:46:07;;;;;;;8.50;4.10;;;18.80;31.00;;;;;;5086767;28;48106;-17
2022/03/30 00:48:34;;;;;;;8.27;3.25;;;18.80;31.00;;;;;;5085919;28;46745;-16
2022/03/30 00:51:01;;;;;;;6.97;3.55;;;18.80;31.00;;;;;;5086613;28;46851;-20
2022/03/30 00:53:28;;;;;;;5.28;3.22;;;18.80;31.00;;;;;;5086056;28;47111;-16
2022/03/30 00:55:55;;;;;;;9.65;4.03;;;18.80;31.10;;;;;;5086649;28;47839;-17
2022/03/30 00:58:23;;;;;;;6.22;3.50;;;18.80;31.10;;;;;;5086722;28;47247;-16
2022/03/30 01:00:50;;;;;;;7.68;3.30;;;18.80;31.00;;;;;;5086581;28;46822;-16
2022/03/30 01:03:17;;;;;;;6.85;3.53;;;18.80;31.10;;;;;;5086950;28;46898;-20
2022/03/30 01:05:44;;;;;;;7.32;3.22;;;18.70;31.10;;;;;;5086624;28;48116;-16
2022/03/30 01:08:10;;;;;;;6.85;3.45;;;18.70;31.10;;;;;;5086615;28;47189;-20
2022/03/30 01:10:37;;;;;;;5.80;3.38;;;18.70;31.80;;;;;;5086396;28;46899;-20
2022/03/30 01:13:05;;;;;;;8.90;3.90;;;18.70;31.20;;;;;;5085896;28;46921;-16
2022/03/30 01:15:33;;;;;;;6.05;3.47;;;18.70;31.20;;;;;;5086172;28;47066;-21
2022/03/30 01:18:02;;;;;;;6.13;3.20;;;18.70;31.20;;;;;;5085942;28;46902;-16
2022/03/30 01:20:28;;;;;;;6.38;2.72;;;18.70;31.20;;;;;;5086468;28;46978;-16
2022/03/30 01:22:56;;;;;;;8.80;3.97;;;18.70;31.20;;;;;;5086350;28;46893;-21
2022/03/30 01:25:23;;;;;;;8.80;4.43;;;18.70;31.20;;;;;;5086096;28;46939;-17
2022/03/30 01:27:50;;;;;;;6.43;3.50;;;18.60;31.10;;;;;;5086084;28;47014;-16
2022/03/30 01:33:16;;;;;;;5.20;3.17;;;18.60;31.30;;;;;;5042212;28;47240;-18
2022/03/30 01:35:42;;;;;;;4.25;3.33;;;18.60;31.20;;;;;;5043355;28;48903;-22
2022/03/30 01:38:11;;;;;;;5.50;3.00;;;18.60;31.30;;;;;;5061283;28;47062;-21
2022/03/30 01:40:38;;;;;;;6.65;3.13;;;18.60;31.30;;;;;;5085940;28;46885;-17
2022/03/30 01:43:05;;;;;;;5.22;3.05;;;18.60;31.40;;;;;;5085943;28;47316;-16
2022/03/30 01:45:32;;;;;;;6.07;3.33;;;18.60;31.30;;;;;;5086110;28;47843;-21
2022/03/30 01:47:59;;;;;;;6.65;3.10;;;18.60;31.40;;;;;;5085789;28;46937;-20
2022/03/30 01:50:26;;;;;;;5.22;3.42;;;18.60;31.40;;;;;;5086035;28;47008;-16
2022/03/30 01:52:53;;;;;;;6.60;2.53;;;18.60;31.50;;;;;;5085199;28;46906;-20
2022/03/30 01:55:21;;;;;;;8.18;3.38;;;18.50;31.50;;;;;;5085668;28;47961;-16
2022/03/30 01:57:48;;;;;;;5.57;3.08;;;18.50;31.40;;;;;;5085706;28;46962;-21
2022/03/30 02:00:17;;;;;;;6.93;3.38;;;18.50;31.40;;;;;;5085656;28;46861;-16
2022/03/30 02:02:44;;;;;;;7.22;3.30;;;18.50;31.50;;;;;;5085611;28;47243;-17
2022/03/30 02:05:11;;;;;;;4.88;2.90;;;18.50;31.40;;;;;;5085753;28;48868;-20
2022/03/30 02:07:38;;;;;;;6.28;3.00;;;18.50;31.60;;;;;;5085319;28;46877;-20
2022/03/30 02:10:06;;;;;;;6.18;3.28;;;18.50;31.50;;;;;;5085551;28;46893;-20
2022/03/30 02:12:34;;;;;;;6.07;3.05;;;18.50;31.60;;;;;;5085473;28;46945;-15
2022/03/30 02:15:00;;;;;;;4.43;2.65;;;18.50;31.60;;;;;;5085546;28;49030;-21
2022/03/30 02:17:27;;;;;;;5.18;2.65;;;18.50;31.70;;;;;;5085448;28;46818;-16
2022/03/30 02:19:55;;;;;;;7.63;3.55;;;18.50;31.60;;;;;;5085553;28;46920;-21
2022/03/30 02:22:22;;;;;;;5.03;3.25;;;18.50;31.70;;;;;;5085664;28;47302;-16
2022/03/30 02:24:48;;;;;;;5.65;2.85;;;18.50;31.80;;;;;;5085507;27;48240;-17
2022/03/30 02:27:15;;;;;;;5.60;3.33;;;18.50;31.70;;;;;;5088905;28;46958;-16
2022/03/30 02:29:43;;;;;;;6.72;3.42;;;18.50;31.80;;;;;;5088952;28;46883;-16
2022/03/30 02:32:10;;;;;;;6.07;2.60;;;18.50;32.00;;;;;;5089200;28;46955;-16
2022/03/30 02:34:37;;;;;;;5.70;3.17;;;18.50;32.10;;;;;;5089118;28;48798;-17
2022/03/30 02:37:04;;;;;;;5.45;3.10;;;18.40;31.90;;;;;;5089062;28;47253;-18
2022/03/30 02:39:31;;;;;;;7.35;3.03;;;18.40;32.00;;;;;;5088758;28;46972;-16
2022/03/30 02:41:57;;;;;;;6.60;3.15;;;18.40;32.10;;;;;;5089195;28;46974;-17
2022/03/30 02:44:24;;;;;;;5.10;3.20;;;18.40;32.00;;;;;;5088836;28;48237;-20
2022/03/30 02:46:52;;;;;;;6.57;3.28;;;18.40;32.40;;;;;;5088772;28;46925;-16
2022/03/30 02:49:19;;;;;;;5.05;2.83;;;18.40;32.30;;;;;;5088793;28;47029;-21
2022/03/30 02:51:45;;;;;;;6.93;3.38;;;18.40;32.40;;;;;;5088967;28;46925;-21
2022/03/30 02:54:12;;;;;;;6.43;3.58;;;18.40;32.40;;;;;;5088034;28;48114;-17
2022/03/30 02:56:39;;;;;;;5.57;3.50;;;18.40;32.40;;;;;;5088431;28;47060;-22
2022/03/30 02:59:06;;;;;;;5.68;3.25;;;18.40;32.50;;;;;;5088944;28;47054;-21
2022/03/30 03:01:33;;;;;;;4.53;3.00;;;18.40;32.50;;;;;;5088860;28;46922;-16
2022/03/30 03:04:02;;;;;;;6.45;3.10;;;18.40;32.60;;;;;;5088026;28;49134;-21
2022/03/30 03:06:28;;;;;;;7.75;3.20;;;18.40;32.70;;;;;;5088595;28;46819;-16
2022/03/30 03:08:57;;;;;;;5.25;3.08;;;18.30;32.70;;;;;;5088108;28;46992;-21
2022/03/30 03:11:23;;;;;;;7.93;3.83;;;18.40;33.00;;;;;;5088474;28;47140;-16
2022/03/30 03:13:50;;;;;;;7.40;3.17;;;18.40;32.80;;;;;;5088168;28;48220;-21
2022/03/30 03:16:17;;;;;;;5.20;3.38;;;18.30;32.70;;;;;;5088165;28;46894;-17
2022/03/30 03:18:43;;;;;;;7.45;3.63;;;18.30;32.80;;;;;;5087977;28;46803;-16
2022/03/30 03:21:11;;;;;;;7.85;3.17;;;18.30;32.80;;;;;;5088592;28;47078;-21
2022/03/30 03:23:38;;;;;;;3.00;2.70;;;18.30;32.90;;;;;;5088083;28;49037;-21
2022/03/30 03:26:05;;;;;;;5.65;3.15;;;18.30;32.90;;;;;;5088295;28;46837;-21
2022/03/30 03:28:32;;;;;;;6.00;3.33;;;18.30;33.10;;;;;;5088266;28;46998;-21
2022/03/30 03:30:58;;;;;;;6.20;3.47;;;18.30;33.10;;;;;;5088229;28;46829;-17
2022/03/30 03:33:25;;;;;;;7.38;3.33;;;18.30;33.10;;;;;;5087413;28;49055;-21
2022/03/30 03:35:52;;;;;;;6.05;3.42;;;18.30;33.10;;;;;;5087874;28;47009;-17
2022/03/30 03:38:20;;;;;;;8.50;3.72;;;18.20;33.70;;;;;;5087566;28;47017;-21
2022/03/30 03:40:47;;;;;;;6.28;3.13;;;18.30;33.20;;;;;;5088356;28;47135;-16
2022/03/30 03:43:14;;;;;;;7.00;3.22;;;18.30;33.30;;;;;;5087400;28;46850;-21
2022/03/30 03:45:41;;;;;;;5.47;3.22;;;18.30;33.40;;;;;;5087829;28;47061;-17
2022/03/30 03:48:08;;;;;;;4.75;2.67;;;18.20;33.30;;;;;;5087578;28;46893;-21
2022/03/30 03:50:34;;;;;;;4.68;3.40;;;18.20;33.50;;;;;;5088106;28;47241;-17
2022/03/30 03:53:02;;;;;;;7.90;3.58;;;18.20;33.60;;;;;;5087532;28;47962;-21
2022/03/30 03:55:33;;;;;;;5.25;3.25;;;18.20;33.70;;;;;;5087492;28;47431;-17
2022/03/30 03:58:00;;;;;;;7.35;3.22;;;18.20;33.60;;;;;;5087390;28;46889;-21
2022/03/30 04:00:27;;;;;;;5.30;3.40;;;18.20;33.60;;;;;;5087927;28;46904;-17
2022/03/30 04:02:53;;;;;;;5.70;3.10;;;18.20;33.60;;;;;;5087496;28;48249;-16
2022/03/30 04:05:20;;;;;;;6.00;3.15;;;18.20;33.60;;;;;;5087816;28;46875;-21
2022/03/30 04:07:47;;;;;;;5.32;3.53;;;18.20;33.70;;;;;;5087274;28;46882;-16
2022/03/30 04:10:15;;;;;;;5.97;2.88;;;18.10;33.80;;;;;;5087587;28;46896;-17
2022/03/30 04:12:43;;;;;;;7.45;3.85;;;18.10;33.80;;;;;;5087060;28;48057;-21
2022/03/30 04:15:10;;;;;;;4.47;2.92;;;18.10;33.90;;;;;;5087252;28;46796;-20
2022/03/30 04:17:42;;;;;;;6.47;3.00;;;18.10;34.00;;;;;;5087581;28;46835;-21
2022/03/30 04:20:10;;;;;;;6.45;3.15;;;18.10;34.00;;;;;;5087741;28;46866;-21
2022/03/30 04:22:37;;;;;;;4.72;3.10;;;18.10;34.00;;;;;;5087154;28;48369;-19
2022/03/30 04:25:04;;;;;;;6.13;3.25;;;18.10;34.00;;;;;;5087041;28;46990;-22
2022/03/30 04:27:31;;;;;;;7.43;3.25;;;18.10;34.00;;;;;;5087276;28;46988;-21
2022/03/30 04:29:59;;;;;;;7.10;3.33;;;18.10;34.10;;;;;;5087329;28;46917;-16
2022/03/30 04:32:26;;;;;;;5.05;3.05;;;18.00;34.10;;;;;;5087270;28;49082;-21
2022/03/30 04:34:52;;;;;;;4.57;3.00;;;18.10;34.20;;;;;;5087037;28;46972;-16
2022/03/30 04:37:20;;;;;;;6.25;3.00;;;18.10;34.30;;;;;;5087020;28;47011;-22
2022/03/30 04:39:47;;;;;;;6.05;3.28;;;18.00;34.40;;;;;;5087497;28;46925;-17
2022/03/30 04:42:14;;;;;;;6.00;2.72;;;18.00;34.50;;;;;;5086834;28;48020;-21
2022/03/30 04:44:41;;;;;;;6.47;3.05;;;18.00;34.80;;;;;;5086979;28;46881;-17
2022/03/30 04:47:10;;;;;;;7.53;3.75;;;18.00;34.60;;;;;;5086698;28;46878;-21
2022/03/30 04:49:36;;;;;;;6.20;3.47;;;18.00;34.90;;;;;;5086562;27;47274;-16
2022/03/30 04:52:03;;;;;;;6.00;3.30;;;18.00;35.00;;;;;;5086833;28;47901;-16
2022/03/30 04:54:30;;;;;;;5.82;3.40;;;17.90;35.00;;;;;;5086733;28;46923;-16
2022/03/30 04:56:57;;;;;;;6.22;3.60;;;17.90;35.00;;;;;;5086565;28;46827;-18
2022/03/30 04:59:23;;;;;;;6.00;3.15;;;17.90;35.00;;;;;;5086802;28;46866;-20
2022/03/30 05:01:50;;;;;;;5.53;3.33;;;17.90;35.10;;;;;;5086669;28;48946;-17
2022/03/30 05:04:18;;;;;;;6.68;3.38;;;17.90;35.50;;;;;;5086257;28;46868;-21
2022/03/30 05:06:45;;;;;;;9.63;3.10;;;17.90;35.30;;;;;;5086728;28;46755;-16
2022/03/30 05:09:12;;;;;;;9.55;3.97;;;17.90;35.50;;;;;;5086695;28;46820;-16
2022/03/30 05:11:39;;;;;;;8.23;3.35;;;17.90;35.40;;;;;;5086502;28;46815;-17
2022/03/30 05:14:06;;;;;;;8.75;3.72;;;17.90;35.70;;;;;;5086037;28;46994;-21
2022/03/30 05:16:33;;;;;;;7.68;3.45;;;17.90;35.80;;;;;;5086520;28;46743;-17
2022/03/30 05:19:00;;;;;;;5.03;3.08;;;17.90;36.00;;;;;;5086248;28;46874;-22
2022/03/30 05:21:29;;;;;;;5.80;3.30;;;17.90;35.90;;;;;;5086391;28;48962;-16
2022/03/30 05:23:55;;;;;;;6.40;3.22;;;17.90;35.90;;;;;;5085937;28;46945;-21
2022/03/30 05:26:22;;;;;;;6.28;3.42;;;17.80;35.90;;;;;;5086085;28;46950;-17
2022/03/30 05:28:49;;;;;;;6.60;3.70;;;17.80;36.10;;;;;;5086381;28;46910;-22
2022/03/30 05:31:16;;;;;;;6.60;3.40;;;17.80;36.00;;;;;;5085863;28;49106;-17
2022/03/30 05:33:43;;;;;;;9.57;3.75;;;17.80;36.20;;;;;;5085614;28;47029;-21
2022/03/30 05:36:09;;;;;;;4.88;3.25;;;17.80;36.10;;;;;;5086187;28;46987;-21
2022/03/30 05:38:38;;;;;;;5.20;3.25;;;17.80;36.20;;;;;;5086000;28;47124;-17
2022/03/30 05:41:04;;;;;;;9.05;4.03;;;17.70;36.20;;;;;;5085562;28;47897;-16
2022/03/30 05:43:31;;;;;;;8.05;3.60;;;17.80;36.30;;;;;;5086250;28;46804;-16
2022/03/30 05:45:58;;;;;;;7.78;3.35;;;17.70;36.20;;;;;;5085518;28;46893;-16
2022/03/30 05:48:25;;;;;;;6.35;3.35;;;17.80;36.40;;;;;;5091866;27;47048;-22
2022/03/30 05:50:55;;;;;;;6.97;3.97;;;17.70;36.30;;;;;;5106034;27;49282;-16
2022/03/30 05:53:22;;;;;;;8.98;3.60;;;17.70;36.20;;;;;;5105508;27;47462;-16
2022/03/30 05:55:50;;;;;;;7.10;3.45;;;17.70;36.20;;;;;;5106080;27;46942;-22
2022/03/30 05:58:16;;;;;;;6.10;3.20;;;17.70;36.30;;;;;;5106099;27;47186;-21
2022/03/30 06:00:43;;;;;;;8.57;3.40;;;17.70;36.30;;;;;;5095000;27;49033;-18
2022/03/30 06:03:11;;;;;;;5.45;3.05;;;17.70;36.20;;;;;;5085387;28;47105;-18
2022/03/30 06:05:37;;;;;;;7.45;3.40;;;17.70;36.20;;;;;;5085637;28;46914;-17
2022/03/30 06:08:05;;;;;;;6.88;3.03;;;17.70;36.20;;;;;;5084941;28;46998;-17
2022/03/30 06:10:31;;;;;;;6.53;3.28;;;17.70;36.20;;;;;;5085599;28;47963;-21
2022/03/30 06:12:59;;;;;;;5.53;3.10;;;17.70;36.30;;;;;;5085581;28;46795;-17
2022/03/30 06:15:26;;;;;;;8.65;3.60;;;17.60;36.20;;;;;;5085569;28;46756;-17
2022/03/30 06:17:54;;;;;;;6.95;3.20;;;17.70;36.30;;;;;;5085625;28;46961;-17
2022/03/30 06:20:21;;;;;;;6.95;3.22;;;17.60;36.30;;;;;;5085457;28;48219;-17
2022/03/30 06:22:48;;;;;;;5.75;3.30;;;17.70;36.20;;;;;;5085195;28;47002;-16
2022/03/30 06:25:14;;;;;;;9.02;3.60;;;17.60;36.30;;;;;;5085672;28;46763;-21
2022/03/30 06:27:41;;;;;;;7.68;3.20;;;17.60;36.30;;;;;;5085323;28;47183;-21
2022/03/30 06:30:11;;;;;;;6.88;3.63;;;17.60;36.40;;;;;;5085173;28;47074;-17
2022/03/30 06:32:38;;;;;;;6.80;2.70;;;17.60;36.40;;;;;;5084837;28;46835;-17
2022/03/30 06:35:05;;;;;;;6.53;3.13;;;17.60;36.40;;;;;;5085065;28;46815;-16
2022/03/30 06:37:32;;;;;;;8.75;3.85;;;17.60;36.40;;;;;;5084843;28;47294;-21
2022/03/30 06:39:58;;;;;;;7.00;3.72;;;17.60;36.50;;;;;;5084958;28;47867;-21
2022/03/30 06:42:25;;;;;;;6.80;2.90;;;17.60;36.40;;;;;;5084928;28;46945;-21
2022/03/30 06:44:52;;;;;;;6.18;3.30;;;17.60;36.60;;;;;;5084884;28;46937;-17
2022/03/30 06:47:20;;;;;;;6.78;3.35;;;17.60;36.60;;;;;;5085077;28;47300;-22
2022/03/30 06:49:47;;;;;;;5.40;3.17;;;17.60;36.50;;;;;;5093812;27;47081;-21
2022/03/30 06:52:13;;;;;;;8.38;3.65;;;17.60;36.60;;;;;;5105688;27;47201;-22
2022/03/30 06:54:40;;;;;;;6.88;3.25;;;17.60;36.70;;;;;;5105483;27;47044;-21
2022/03/30 06:57:07;;;;;;;8.30;3.58;;;17.60;36.60;;;;;;5094804;27;47261;-16
2022/03/30 06:59:34;;;;;;;7.95;3.20;;;17.60;36.70;;;;;;5084429;28;47358;-23
2022/03/30 07:02:00;;;;;;;6.82;3.28;;;17.60;37.80;;;;;;5083551;28;46934;-26
2022/03/30 07:04:29;;;;;;;12.02;3.53;;;17.60;38.30;;;;;;5084815;28;46793;-22
2022/03/30 07:12:23;;;;;;;9.27;6.63;;;17.80;38.40;;;;;;5083157;28;47298;-16
2022/03/30 07:14:50;;;;;;;10.77;5.53;;;17.90;38.10;;;;;;5088267;28;46924;-17
2022/03/30 07:17:17;;;;;;;9.40;4.20;;;17.90;38.00;;;;;;5087778;28;46861;-20
2022/03/30 07:19:45;;;;;;;12.52;4.50;;;17.90;38.20;;;;;;5088224;28;49063;-18
2022/03/30 07:22:13;;;;;;;12.75;5.40;;;18.00;38.10;;;;;;5087605;28;48100;-17
2022/03/30 07:24:40;;;;;;;14.02;3.97;;;18.00;38.40;;;;;;5087737;28;46875;-22
2022/03/30 07:27:07;;;;;;;9.98;4.32;;;18.00;38.10;;;;;;5087275;28;47050;-22
2022/03/30 07:29:34;;;;;;;15.90;8.70;;;18.00;38.00;;;;;;5086614;28;46977;-24
2022/03/30 07:32:01;;;;;;;14.55;7.10;;;18.10;38.00;;;;;;5086471;28;46961;-17
2022/03/30 07:34:28;;;;;;;11.70;7.22;;;18.00;37.80;;;;;;5087812;28;46907;-17
2022/03/30 07:36:56;;;;;;;10.52;5.60;;;18.10;37.80;;;;;;5087852;28;47266;-17
2022/03/30 07:39:23;;;;;;;11.90;4.72;;;18.10;38.10;;;;;;5087405;28;47892;-16
2022/03/30 07:41:50;;;;;;;9.75;4.40;;;18.00;37.80;;;;;;5087347;28;46800;-21
2022/03/30 07:44:16;;;;;;;15.40;5.50;;;18.10;37.70;;;;;;5086780;28;46958;-23
2022/03/30 07:46:44;;;;;;;13.20;4.70;;;18.10;38.10;;;;;;5085801;28;47036;-26
2022/03/30 07:49:11;;;;;;;14.35;4.35;;;18.10;38.30;;;;;;5085445;28;49122;-23
2022/03/30 07:51:38;;;;;;;13.13;4.10;;;18.20;38.60;;;;;;5085657;28;47104;-23
2022/03/30 07:54:06;;;;;;;9.20;4.30;;;18.20;38.00;;;;;;5084845;28;46911;-17
2022/03/30 07:56:34;;;;;;;8.07;4.88;;;18.30;38.10;;;;;;5085570;28;47257;-25
2022/03/30 07:59:01;;;;;;;10.88;4.65;;;18.30;38.20;;;;;;5085542;28;49301;-22
2022/03/30 08:01:28;;;;;;;9.55;5.05;;;18.30;42.70;;;;;;5086219;28;47254;-21
2022/03/30 08:03:56;;;;;;;9.20;4.35;;;18.30;40.70;;;;;;5085925;28;46949;-23
2022/03/30 08:06:23;;;;;;;10.88;4.72;;;18.30;39.20;;;;;;5087300;28;46875;-18
2022/03/30 08:08:50;;;;;;;25.98;4.78;;;18.40;38.90;;;;;;5087067;28;48862;-21
2022/03/30 08:11:18;;;;;;;9.70;4.05;;;18.40;38.80;;;;;;5087178;28;46878;-19
2022/03/30 08:13:45;;;;;;;8.48;3.95;;;18.40;38.60;;;;;;5086640;28;46923;-21
2022/03/30 08:16:12;;;;;;;11.07;3.78;;;18.40;38.50;;;;;;5087362;28;46886;-19
2022/03/30 08:18:38;;;;;;;6.82;3.45;;;18.40;38.30;;;;;;5086673;28;48881;-21
2022/03/30 08:23:49;;;;;;;10.50;3.53;;;18.40;38.20;;;;;;5085347;27;46914;-23
2022/03/30 08:26:17;;;;;;;10.30;4.05;;;18.50;38.00;;;;;;5087155;28;47287;-17
2022/03/30 08:28:44;;;;;;;4.85;3.80;;;18.50;37.90;;;;;;5086523;28;49081;-23
2022/03/30 08:31:11;;;;;;;7.60;4.05;;;18.50;39.60;;;;;;5085744;28;46879;-18
2022/03/30 08:33:38;;;;;;;9.35;3.80;;;18.50;42.90;;;;;;5083794;28;46904;-18
2022/03/30 08:36:07;;;;;;;14.50;4.03;;;18.50;45.30;;;;;;5085222;28;47140;-21
2022/03/30 08:38:34;;;;;;;10.35;4.20;;;18.50;44.90;;;;;;5085194;28;47839;-22
2022/03/30 08:41:00;;;;;;;14.52;4.15;;;18.50;42.80;;;;;;5086908;28;47109;-18
2022/03/30 08:43:29;;;;;;;11.63;3.78;;;18.50;42.10;;;;;;5086209;28;46920;-18
2022/03/30 08:45:59;;;;;;;9.73;3.50;;;18.60;41.20;;;;;;5087157;28;47314;-17
2022/03/30 08:48:25;;;;;;;17.13;4.07;;;18.60;41.00;;;;;;5085711;28;48858;-23
2022/03/30 08:50:52;;;;;;;13.57;7.70;;;18.60;40.90;;;;;;5084865;28;46862;-19
2022/03/30 08:53:19;;;;;;;11.45;4.90;;;18.70;40.50;;;;;;5083758;28;46895;-22
2022/03/30 08:55:46;;;;;;;12.63;4.72;;;18.70;40.20;;;;;;5084886;28;47055;-19
2022/03/30 08:58:13;;;;;;;8.00;3.63;;;18.80;40.00;;;;;;5084594;28;47516;-16
2022/03/30 09:00:41;;;;;;;13.13;4.00;;;18.80;39.70;;;;;;5085059;28;47297;-22
2022/03/30 09:03:08;;;;;;;7.65;4.03;;;18.80;39.80;;;;;;5083779;28;46919;-16
2022/03/30 09:05:37;;;;;;;7.65;3.63;;;18.80;39.40;;;;;;5086852;28;47010;-22
2022/03/30 09:08:14;;;;;;;8.43;3.97;;;18.80;39.40;;;;;;5085087;28;47853;-22
2022/03/30 09:10:42;;;;;;;10.20;4.60;;;18.90;39.20;;;;;;5086262;28;46943;-22
2022/03/30 09:13:09;;;;;;;8.15;3.83;;;18.90;39.10;;;;;;5085921;28;47289;-22
2022/03/30 09:15:37;;;;;;;8.32;3.58;;;18.90;38.60;;;;;;5086638;28;46829;-22
2022/03/30 09:18:07;;;;;;;9.05;3.33;;;18.90;38.60;;;;;;5085577;28;48125;-18
2022/03/30 09:20:34;;;;;;;9.23;3.92;;;18.90;38.30;;;;;;5086308;28;46837;-18
2022/03/30 09:23:01;;;;;;;9.30;4.00;;;18.90;38.20;;;;;;5085327;28;46837;-22
2022/03/30 09:25:28;;;;;;;7.68;3.20;;;18.90;38.20;;;;;;5086448;27;47087;-16
2022/03/30 09:27:56;;;;;;;6.30;3.63;;;18.90;38.20;;;;;;5085356;27;47939;-16
2022/03/30 09:30:24;;;;;;;8.48;3.50;;;18.90;38.20;;;;;;5086107;28;46749;-22
2022/03/30 09:32:52;;;;;;;9.40;4.60;;;18.80;38.20;;;;;;5086010;28;47041;-22
2022/03/30 09:35:24;;;;;;;8.23;3.60;;;18.90;38.40;;;;;;5086035;27;46961;-21
2022/03/30 09:38:08;;;;;;;16.02;4.20;;;18.80;38.40;;;;;;5085357;28;48100;-21
2022/03/30 09:40:36;;;;;;;8.73;3.25;;;18.80;38.30;;;;;;5085639;28;46879;-22
2022/03/30 09:43:17;;;;;;;7.10;3.42;;;18.80;38.30;;;;;;5085382;28;46943;-24
2022/03/30 09:45:44;;;;;;;15.05;3.80;;;18.80;38.30;;;;;;5074303;28;46928;-22
2022/03/30 09:48:12;;;;;;;10.85;3.60;;;18.80;38.60;;;;;;5085206;28;49062;-22
2022/03/30 09:50:46;;;;;;;8.85;3.40;;;18.80;38.40;;;;;;5085720;28;46946;-16
2022/03/30 09:53:14;;;;;;;8.27;3.60;;;18.80;38.30;;;;;;5084743;28;46811;-17
2022/03/30 09:55:58;;;;;;;12.60;3.53;;;18.80;38.30;;;;;;5085824;28;47174;-22
2022/03/30 09:58:26;;;;;;;9.80;3.20;;;18.80;38.30;;;;;;5084288;28;48159;-22
2022/03/30 10:01:10;;;;;;;14.88;3.40;;;18.80;38.40;;;;;;5084257;28;46895;-22
2022/03/30 10:03:42;;;;;;;7.03;3.38;;;18.90;38.40;;;;;;5084271;28;46966;-22
2022/03/30 10:06:11;;;;;;;11.85;3.58;;;18.90;38.20;;;;;;5083917;28;46902;-21
2022/03/30 10:08:39;;;;;;;11.20;3.53;;;18.90;39.00;;;;;;5083915;28;48041;-17
2022/03/30 10:11:06;;;;;;;10.45;3.67;;;18.90;38.50;;;;;;5084152;28;47168;-22
2022/03/30 10:13:33;;;;;;;6.35;2.88;;;18.90;38.30;;;;;;5083892;28;47026;-17
2022/03/30 10:16:00;;;;;;;15.15;3.55;;;18.90;38.30;;;;;;5084643;28;46983;-22
2022/03/30 10:18:27;;;;;;;9.32;3.42;;;18.90;38.70;;;;;;5085277;28;47903;-23
2022/03/30 10:21:04;;;;;;;12.18;3.40;;;18.90;38.30;;;;;;5085581;28;46765;-17
2022/03/30 10:23:38;;;;;;;10.18;3.42;;;18.90;38.20;;;;;;5085264;28;47079;-19
2022/03/30 10:26:10;;;;;;;8.30;3.75;;;18.90;38.20;;;;;;5085082;28;47123;-16
2022/03/30 10:28:48;;;;;;;9.10;4.13;;;18.90;38.10;;;;;;5064425;28;48026;-18
2022/03/30 10:31:16;;;;;;;8.90;3.83;;;18.90;39.20;;;;;;5068833;28;47056;-16
2022/03/30 10:33:44;;;;;;;12.68;3.53;;;18.90;40.10;;;;;;5053952;28;47120;-18
2022/03/30 10:36:25;;;;;;;8.80;3.83;;;18.90;40.30;;;;;;5060307;28;47374;-23
2022/03/30 10:39:24;;;;;;;10.13;3.50;;;18.80;40.00;;;;;;5082359;28;47005;-24
2022/03/30 10:41:52;;;;;;;8.10;3.70;;;18.90;39.80;;;;;;5082305;28;46892;-24
2022/03/30 10:44:42;;;;;;;7.50;3.35;;;18.90;39.70;;;;;;5084802;28;46736;-23
2022/03/30 10:47:13;;;;;;;11.05;3.55;;;18.90;39.50;;;;;;5086715;27;46840;-23
2022/03/30 10:49:41;;;;;;;9.93;3.45;;;18.90;39.30;;;;;;5088731;28;49458;-22
2022/03/30 10:52:35;;;;;;;9.15;3.67;;;18.90;39.30;;;;;;5088154;28;47230;-17
2022/03/30 10:55:33;;;;;;;11.10;3.80;;;18.90;39.20;;;;;;5088534;28;46957;-18
2022/03/30 10:58:01;;;;;;;10.52;3.10;;;19.00;39.10;;;;;;5087743;28;47333;-18
2022/03/30 11:00:31;;;;;;;8.65;3.20;;;18.90;39.40;;;;;;5087596;28;48222;-18
2022/03/30 11:03:13;;;;;;;8.88;3.67;;;18.90;39.00;;;;;;5087619;28;48279;-18
2022/03/30 11:05:44;;;;;;;10.80;3.60;;;18.90;38.90;;;;;;5086667;28;46886;-18
2022/03/30 11:08:45;;;;;;;5.30;3.40;;;18.90;38.90;;;;;;5087760;28;46941;-19
2022/03/30 11:11:23;;;;;;;11.82;3.78;;;18.90;38.70;;;;;;5085457;28;48370;-17
2022/03/30 11:13:50;;;;;;;7.90;3.15;;;18.90;38.80;;;;;;5084880;28;46989;-17
2022/03/30 11:16:17;;;;;;;6.43;3.15;;;18.90;38.90;;;;;;5087552;28;46811;-18
2022/03/30 11:18:58;;;;;;;11.70;3.80;;;18.90;38.70;;;;;;5087464;28;46829;-18
2022/03/30 11:21:25;;;;;;;7.10;3.38;;;18.90;39.40;;;;;;5087614;28;49020;-17
2022/03/30 11:24:20;;;;;;;9.48;3.65;;;18.90;39.00;;;;;;5087992;28;46821;-17
2022/03/30 11:27:23;;;;;;;10.00;3.33;;;18.90;38.70;;;;;;5088080;28;46797;-17
2022/03/30 11:29:59;;;;;;;6.22;2.92;;;19.00;38.70;;;;;;5087248;28;46890;-23
2022/03/30 11:32:57;;;;;;;10.13;3.55;;;19.00;38.60;;;;;;5087076;28;47947;-23
2022/03/30 11:35:28;;;;;;;5.95;3.17;;;19.00;38.60;;;;;;5085493;28;47206;-24
2022/03/30 11:38:02;;;;;;;4.70;3.28;;;19.00;38.50;;;;;;5087515;28;47065;-23
2022/03/30 11:40:29;;;;;;;7.85;3.38;;;19.00;38.50;;;;;;5087899;28;46967;-22
2022/03/30 11:42:56;;;;;;;6.72;3.35;;;19.10;38.30;;;;;;5086974;28;48944;-23
2022/03/30 11:45:26;;;;;;;6.03;2.90;;;19.20;38.20;;;;;;5087501;28;46804;-22
2022/03/30 11:47:55;;;;;;;8.07;3.40;;;19.10;38.20;;;;;;5086692;28;47050;-17
2022/03/30 11:50:26;;;;;;;5.82;3.28;;;19.10;38.20;;;;;;5087920;28;46975;-17
2022/03/30 11:52:57;;;;;;;6.05;3.00;;;19.10;38.20;;;;;;5083338;28;48214;-23
2022/03/30 11:55:24;;;;;;;13.40;3.25;;;19.10;38.30;;;;;;5086864;28;46969;-22
2022/03/30 11:57:52;;;;;;;8.27;3.83;;;19.10;38.10;;;;;;5085903;27;47236;-18
2022/03/30 12:00:19;;;;;;;5.28;2.80;;;19.10;38.10;;;;;;5087428;28;47028;-17
2022/03/30 12:02:47;;;;;;;4.57;3.00;;;19.10;38.00;;;;;;5086373;28;48046;-18
2022/03/30 12:05:14;;;;;;;6.40;3.17;;;19.10;38.10;;;;;;5087256;28;46871;-23
2022/03/30 12:07:41;;;;;;;8.45;3.05;;;19.10;38.10;;;;;;5086480;28;46969;-18
2022/03/30 12:10:13;;;;;;;5.88;2.72;;;19.10;38.10;;;;;;5084233;28;47048;-17
2022/03/30 12:12:40;;;;;;;6.10;2.90;;;19.10;38.20;;;;;;5086396;28;49084;-18
2022/03/30 12:15:08;;;;;;;5.90;3.15;;;19.10;38.40;;;;;;5085440;28;46988;-18
2022/03/30 12:17:35;;;;;;;10.20;3.35;;;19.10;38.60;;;;;;5086490;28;46938;-17
2022/03/30 12:20:05;;;;;;;6.63;3.05;;;19.00;38.60;;;;;;5087084;28;47276;-22
2022/03/30 12:22:32;;;;;;;4.93;3.03;;;19.00;38.60;;;;;;5086625;28;48924;-22
2022/03/30 12:24:59;;;;;;;7.97;3.20;;;19.10;38.60;;;;;;5087250;28;47286;-23
2022/03/30 12:27:25;;;;;;;6.10;2.83;;;19.10;38.60;;;;;;5086906;28;46913;-17
2022/03/30 12:29:54;;;;;;;6.10;3.20;;;19.10;38.60;;;;;;5086948;28;46830;-22
2022/03/30 12:32:23;;;;;;;6.75;3.00;;;19.00;38.50;;;;;;5086485;28;47055;-18
2022/03/30 12:34:50;;;;;;;6.60;2.90;;;19.00;38.90;;;;;;5087001;28;46971;-22
2022/03/30 12:37:22;;;;;;;8.77;3.30;;;19.00;38.90;;;;;;5086568;28;46903;-19
2022/03/30 12:39:49;;;;;;;9.98;3.42;;;19.00;38.80;;;;;;5087148;28;47290;-17
2022/03/30 12:42:22;;;;;;;5.57;3.10;;;19.10;38.90;;;;;;5086355;28;47819;-22
2022/03/30 12:44:50;;;;;;;6.28;2.80;;;19.00;38.90;;;;;;5086661;28;46894;-22
2022/03/30 12:47:17;;;;;;;7.30;3.38;;;19.00;38.70;;;;;;5086441;28;46862;-18
2022/03/30 12:49:44;;;;;;;7.32;3.13;;;19.00;38.70;;;;;;5086704;28;46871;-22
2022/03/30 12:52:13;;;;;;;5.40;2.80;;;19.10;38.70;;;;;;5086571;28;49166;-17
2022/03/30 12:54:42;;;;;;;7.38;3.00;;;19.10;38.70;;;;;;5086597;28;47252;-22
2022/03/30 12:57:08;;;;;;;6.47;2.60;;;19.10;38.70;;;;;;5086565;28;46797;-17
2022/03/30 12:59:35;;;;;;;6.82;3.05;;;19.10;38.60;;;;;;5086713;28;46908;-18
2022/03/30 13:02:17;;;;;;;5.32;2.78;;;19.10;38.60;;;;;;5086100;28;47067;-22
2022/03/30 13:04:49;;;;;;;4.38;3.17;;;19.10;38.50;;;;;;5086524;28;46996;-17